sensor_id;sensor_type;location;lat;lon;timestamp;P1;durP1;ratioP1;P2;durP2;ratioP2
74074;SDS011;62428;51.412;5.432;2023-04-01T00:01:58;6.30;;;0.70;;
74074;SDS011;62428;51.412;5.432;2023-04-01T00:04:23;6.90;;;0.50;;
74074;SDS011;62428;51.412;5.432;2023-04-01T00:06:49;5.28;;;0.40;;
74074;SDS011;62428;51.412;5.432;2023-04-01T00:09:14;1.95;;;0.20;;
74074;SDS011;62428;51.412;5.432;2023-04-01T00:11:40;4.43;;;0.90;;
74074;SDS011;62428;51.412;5.432;2023-04-01T00:14:05;4.07;;;0.50;;
74074;SDS011;62428;51.412;5.432;2023-04-01T00:16:34;3.25;;;0.30;;
74074;SDS011;62428;51.412;5.432;2023-04-01T00:19:00;5.50;;;0.32;;
74074;SDS011;62428;51.412;5.432;2023-04-01T00:21:25;5.73;;;0.30;;
74074;SDS011;62428;51.412;5.432;2023-04-01T00:23:51;4.82;;;0.40;;
74074;SDS011;62428;51.412;5.432;2023-04-01T00:26:16;4.83;;;0.30;;
74074;SDS011;62428;51.412;5.432;2023-04-01T00:28:45;3.47;;;0.40;;
74074;SDS011;62428;51.412;5.432;2023-04-01T00:31:11;3.63;;;0.40;;
74074;SDS011;62428;51.412;5.432;2023-04-01T00:33:37;4.13;;;0.52;;
74074;SDS011;62428;51.412;5.432;2023-04-01T00:36:09;2.95;;;0.50;;
74074;SDS011;62428;51.412;5.432;2023-04-01T00:38:39;2.53;;;0.40;;
74074;SDS011;62428;51.412;5.432;2023-04-01T00:41:06;4.18;;;0.30;;
74074;SDS011;62428;51.412;5.432;2023-04-01T00:43:32;3.72;;;0.30;;
74074;SDS011;62428;51.412;5.432;2023-04-01T00:45:58;6.07;;;0.68;;
74074;SDS011;62428;51.412;5.432;2023-04-01T00:48:24;1.85;;;0.40;;
74074;SDS011;62428;51.412;5.432;2023-04-01T00:50:59;2.47;;;0.30;;
74074;SDS011;62428;51.412;5.432;2023-04-01T00:53:28;2.97;;;0.30;;
74074;SDS011;62428;51.412;5.432;2023-04-01T00:59:00;5.53;;;0.60;;
74074;SDS011;62428;51.412;5.432;2023-04-01T01:01:29;1.15;;;0.32;;
74074;SDS011;62428;51.412;5.432;2023-04-01T01:03:56;3.53;;;0.93;;
74074;SDS011;62428;51.412;5.432;2023-04-01T01:09:25;1.52;;;0.32;;
74074;SDS011;62428;51.412;5.432;2023-04-01T01:12:18;2.13;;;0.30;;
74074;SDS011;62428;51.412;5.432;2023-04-01T01:14:57;2.70;;;0.40;;
74074;SDS011;62428;51.412;5.432;2023-04-01T01:23:10;2.63;;;0.63;;
74074;SDS011;62428;51.412;5.432;2023-04-01T01:28:33;2.70;;;0.40;;
74074;SDS011;62428;51.412;5.432;2023-04-01T01:36:42;0.98;;;0.50;;
74074;SDS011;62428;51.412;5.432;2023-04-01T01:39:10;1.45;;;0.63;;
74074;SDS011;62428;51.412;5.432;2023-04-01T01:41:38;1.95;;;0.57;;
74074;SDS011;62428;51.412;5.432;2023-04-01T01:44:07;1.45;;;0.70;;
74074;SDS011;62428;51.412;5.432;2023-04-01T01:46:34;3.00;;;0.80;;
74074;SDS011;62428;51.412;5.432;2023-04-01T01:49:03;2.40;;;0.70;;
74074;SDS011;62428;51.412;5.432;2023-04-01T01:51:32;1.63;;;0.80;;
74074;SDS011;62428;51.412;5.432;2023-04-01T01:53:58;2.42;;;0.80;;
74074;SDS011;62428;51.412;5.432;2023-04-01T01:56:24;2.47;;;0.90;;
74074;SDS011;62428;51.412;5.432;2023-04-01T01:58:55;4.93;;;1.33;;
74074;SDS011;62428;51.412;5.432;2023-04-01T02:01:26;4.32;;;1.55;;
74074;SDS011;62428;51.412;5.432;2023-04-01T02:03:54;3.38;;;1.52;;
74074;SDS011;62428;51.412;5.432;2023-04-01T02:06:23;2.40;;;1.30;;
74074;SDS011;62428;51.412;5.432;2023-04-01T02:11:43;3.10;;;2.10;;
74074;SDS011;62428;51.412;5.432;2023-04-01T02:14:17;3.67;;;1.88;;
74074;SDS011;62428;51.412;5.432;2023-04-01T02:16:45;3.30;;;1.70;;
74074;SDS011;62428;51.412;5.432;2023-04-01T02:19:17;3.20;;;2.10;;
74074;SDS011;62428;51.412;5.432;2023-04-01T02:21:48;3.55;;;2.35;;
74074;SDS011;62428;51.412;5.432;2023-04-01T02:24:16;4.38;;;1.90;;
74074;SDS011;62428;51.412;5.432;2023-04-01T02:26:46;4.75;;;2.50;;
74074;SDS011;62428;51.412;5.432;2023-04-01T02:29:12;4.63;;;2.70;;
74074;SDS011;62428;51.412;5.432;2023-04-01T02:31:38;6.38;;;2.80;;
74074;SDS011;62428;51.412;5.432;2023-04-01T02:34:04;6.93;;;3.25;;
74074;SDS011;62428;51.412;5.432;2023-04-01T02:36:30;4.60;;;2.97;;
74074;SDS011;62428;51.412;5.432;2023-04-01T02:38:56;5.73;;;2.83;;
74074;SDS011;62428;51.412;5.432;2023-04-01T02:41:27;5.63;;;2.70;;
74074;SDS011;62428;51.412;5.432;2023-04-01T02:43:53;6.30;;;3.10;;
74074;SDS011;62428;51.412;5.432;2023-04-01T02:46:18;5.43;;;2.37;;
74074;SDS011;62428;51.412;5.432;2023-04-01T02:48:43;4.63;;;2.73;;
74074;SDS011;62428;51.412;5.432;2023-04-01T02:51:09;5.70;;;2.70;;
74074;SDS011;62428;51.412;5.432;2023-04-01T02:53:34;6.27;;;2.87;;
74074;SDS011;62428;51.412;5.432;2023-04-01T02:56:00;8.20;;;3.47;;
74074;SDS011;62428;51.412;5.432;2023-04-01T02:58:25;6.30;;;3.37;;
74074;SDS011;62428;51.412;5.432;2023-04-01T03:00:50;4.67;;;2.90;;
74074;SDS011;62428;51.412;5.432;2023-04-01T03:03:16;5.73;;;3.27;;
74074;SDS011;62428;51.412;5.432;2023-04-01T03:05:41;7.97;;;3.80;;
74074;SDS011;62428;51.412;5.432;2023-04-01T03:08:06;7.35;;;4.13;;
74074;SDS011;62428;51.412;5.432;2023-04-01T03:10:32;8.45;;;3.75;;
74074;SDS011;62428;51.412;5.432;2023-04-01T03:12:57;5.27;;;3.53;;
74074;SDS011;62428;51.412;5.432;2023-04-01T03:15:23;5.70;;;3.97;;
74074;SDS011;62428;51.412;5.432;2023-04-01T03:17:48;9.00;;;4.20;;
74074;SDS011;62428;51.412;5.432;2023-04-01T03:20:14;7.45;;;4.32;;
74074;SDS011;62428;51.412;5.432;2023-04-01T03:22:40;5.47;;;3.27;;
74074;SDS011;62428;51.412;5.432;2023-04-01T03:25:05;7.93;;;3.85;;
74074;SDS011;62428;51.412;5.432;2023-04-01T03:27:33;7.03;;;3.83;;
74074;SDS011;62428;51.412;5.432;2023-04-01T03:29:59;8.38;;;3.78;;
74074;SDS011;62428;51.412;5.432;2023-04-01T03:32:25;5.93;;;3.17;;
74074;SDS011;62428;51.412;5.432;2023-04-01T03:34:52;6.55;;;3.60;;
74074;SDS011;62428;51.412;5.432;2023-04-01T03:37:17;6.87;;;3.77;;
74074;SDS011;62428;51.412;5.432;2023-04-01T03:39:43;4.68;;;3.13;;
74074;SDS011;62428;51.412;5.432;2023-04-01T03:42:08;9.37;;;4.27;;
74074;SDS011;62428;51.412;5.432;2023-04-01T03:44:33;5.30;;;3.93;;
74074;SDS011;62428;51.412;5.432;2023-04-01T03:46:59;6.00;;;3.38;;
74074;SDS011;62428;51.412;5.432;2023-04-01T03:49:25;5.20;;;3.50;;
74074;SDS011;62428;51.412;5.432;2023-04-01T03:51:51;5.82;;;3.42;;
74074;SDS011;62428;51.412;5.432;2023-04-01T03:54:17;5.03;;;3.70;;
74074;SDS011;62428;51.412;5.432;2023-04-01T03:56:44;4.50;;;3.10;;
74074;SDS011;62428;51.412;5.432;2023-04-01T03:59:10;4.78;;;3.70;;
74074;SDS011;62428;51.412;5.432;2023-04-01T04:01:36;6.10;;;3.83;;
74074;SDS011;62428;51.412;5.432;2023-04-01T04:04:01;6.80;;;4.00;;
74074;SDS011;62428;51.412;5.432;2023-04-01T04:06:27;6.73;;;3.77;;
74074;SDS011;62428;51.412;5.432;2023-04-01T04:08:52;8.73;;;4.97;;
74074;SDS011;62428;51.412;5.432;2023-04-01T04:11:18;6.07;;;4.17;;
74074;SDS011;62428;51.412;5.432;2023-04-01T04:13:45;8.02;;;4.55;;
74074;SDS011;62428;51.412;5.432;2023-04-01T04:16:13;9.23;;;5.10;;
74074;SDS011;62428;51.412;5.432;2023-04-01T04:18:39;7.00;;;4.40;;
74074;SDS011;62428;51.412;5.432;2023-04-01T04:21:05;8.60;;;5.03;;
74074;SDS011;62428;51.412;5.432;2023-04-01T04:23:30;10.00;;;6.07;;
74074;SDS011;62428;51.412;5.432;2023-04-01T04:26:02;11.27;;;5.43;;
74074;SDS011;62428;51.412;5.432;2023-04-01T04:28:29;10.05;;;5.90;;
74074;SDS011;62428;51.412;5.432;2023-04-01T04:30:55;10.07;;;5.68;;
74074;SDS011;62428;51.412;5.432;2023-04-01T04:33:21;8.90;;;5.30;;
74074;SDS011;62428;51.412;5.432;2023-04-01T04:35:48;11.93;;;5.47;;
74074;SDS011;62428;51.412;5.432;2023-04-01T04:38:14;11.20;;;4.77;;
74074;SDS011;62428;51.412;5.432;2023-04-01T04:40:40;10.20;;;5.10;;
74074;SDS011;62428;51.412;5.432;2023-04-01T04:43:06;9.40;;;5.10;;
74074;SDS011;62428;51.412;5.432;2023-04-01T04:45:32;9.32;;;4.43;;
74074;SDS011;62428;51.412;5.432;2023-04-01T04:47:57;8.33;;;4.30;;
74074;SDS011;62428;51.412;5.432;2023-04-01T04:50:23;9.65;;;5.00;;
74074;SDS011;62428;51.412;5.432;2023-04-01T04:52:49;6.55;;;3.80;;
74074;SDS011;62428;51.412;5.432;2023-04-01T04:55:15;7.60;;;4.30;;
74074;SDS011;62428;51.412;5.432;2023-04-01T04:57:40;8.20;;;3.70;;
74074;SDS011;62428;51.412;5.432;2023-04-01T05:00:06;7.40;;;3.90;;
74074;SDS011;62428;51.412;5.432;2023-04-01T05:02:32;8.90;;;3.90;;
74074;SDS011;62428;51.412;5.432;2023-04-01T05:04:59;8.70;;;3.72;;
74074;SDS011;62428;51.412;5.432;2023-04-01T05:07:25;5.90;;;3.50;;
74074;SDS011;62428;51.412;5.432;2023-04-01T05:09:50;6.57;;;4.23;;
74074;SDS011;62428;51.412;5.432;2023-04-01T05:12:15;6.95;;;3.60;;
74074;SDS011;62428;51.412;5.432;2023-04-01T05:14:41;6.43;;;3.67;;
74074;SDS011;62428;51.412;5.432;2023-04-01T05:17:09;6.53;;;3.50;;
74074;SDS011;62428;51.412;5.432;2023-04-01T05:19:36;7.03;;;4.10;;
74074;SDS011;62428;51.412;5.432;2023-04-01T05:22:02;7.13;;;3.80;;
74074;SDS011;62428;51.412;5.432;2023-04-01T05:24:27;5.00;;;3.00;;
74074;SDS011;62428;51.412;5.432;2023-04-01T05:26:52;4.68;;;3.13;;
74074;SDS011;62428;51.412;5.432;2023-04-01T05:29:18;4.90;;;3.37;;
74074;SDS011;62428;51.412;5.432;2023-04-01T05:31:43;5.13;;;2.63;;
74074;SDS011;62428;51.412;5.432;2023-04-01T05:34:08;5.07;;;2.80;;
74074;SDS011;62428;51.412;5.432;2023-04-01T05:36:34;4.80;;;2.47;;
74074;SDS011;62428;51.412;5.432;2023-04-01T05:39:00;5.68;;;2.80;;
74074;SDS011;62428;51.412;5.432;2023-04-01T05:41:26;4.33;;;2.37;;
74074;SDS011;62428;51.412;5.432;2023-04-01T05:43:51;3.67;;;2.20;;
74074;SDS011;62428;51.412;5.432;2023-04-01T05:46:16;3.97;;;2.20;;
74074;SDS011;62428;51.412;5.432;2023-04-01T05:48:42;4.15;;;2.13;;
74074;SDS011;62428;51.412;5.432;2023-04-01T05:51:11;5.07;;;2.40;;
74074;SDS011;62428;51.412;5.432;2023-04-01T05:53:38;5.20;;;2.67;;
74074;SDS011;62428;51.412;5.432;2023-04-01T05:56:03;4.18;;;2.10;;
74074;SDS011;62428;51.412;5.432;2023-04-01T05:58:29;5.23;;;2.20;;
74074;SDS011;62428;51.412;5.432;2023-04-01T06:01:05;4.47;;;2.15;;
74074;SDS011;62428;51.412;5.432;2023-04-01T06:03:32;4.15;;;2.35;;
74074;SDS011;62428;51.412;5.432;2023-04-01T06:05:57;4.05;;;2.42;;
74074;SDS011;62428;51.412;5.432;2023-04-01T06:08:23;5.90;;;2.38;;
74074;SDS011;62428;51.412;5.432;2023-04-01T06:27:48;5.43;;;3.05;;
74074;SDS011;62428;51.412;5.432;2023-04-01T06:33:15;4.80;;;2.30;;
74074;SDS011;62428;51.412;5.432;2023-04-01T06:36:18;5.80;;;2.42;;
74074;SDS011;62428;51.412;5.432;2023-04-01T06:44:16;3.63;;;1.83;;
74074;SDS011;62428;51.412;5.432;2023-04-01T06:46:48;6.13;;;2.25;;
74074;SDS011;62428;51.412;5.432;2023-04-01T06:49:33;5.65;;;2.47;;
74074;SDS011;62428;51.412;5.432;2023-04-01T06:54:43;9.90;;;3.17;;
74074;SDS011;62428;51.412;5.432;2023-04-01T06:57:28;10.93;;;2.93;;
74074;SDS011;62428;51.412;5.432;2023-04-01T06:59:59;6.80;;;3.13;;
74074;SDS011;62428;51.412;5.432;2023-04-01T07:05:23;9.93;;;3.40;;
74074;SDS011;62428;51.412;5.432;2023-04-01T07:07:53;7.53;;;3.40;;
74074;SDS011;62428;51.412;5.432;2023-04-01T07:13:00;9.05;;;4.22;;
74074;SDS011;62428;51.412;5.432;2023-04-01T07:15:38;9.10;;;4.70;;
74074;SDS011;62428;51.412;5.432;2023-04-01T07:18:10;9.10;;;5.07;;
74074;SDS011;62428;51.412;5.432;2023-04-01T07:20:41;9.15;;;4.95;;
74074;SDS011;62428;51.412;5.432;2023-04-01T07:23:10;12.37;;;5.57;;
74074;SDS011;62428;51.412;5.432;2023-04-01T07:25:47;9.98;;;5.40;;
74074;SDS011;62428;51.412;5.432;2023-04-01T07:28:16;12.65;;;6.43;;
74074;SDS011;62428;51.412;5.432;2023-04-01T07:33:33;17.30;;;6.97;;
74074;SDS011;62428;51.412;5.432;2023-04-01T07:36:06;16.38;;;8.05;;
74074;SDS011;62428;51.412;5.432;2023-04-01T07:41:31;19.55;;;7.97;;
74074;SDS011;62428;51.412;5.432;2023-04-01T07:44:16;16.70;;;8.45;;
74074;SDS011;62428;51.412;5.432;2023-04-01T07:57:19;21.10;;;10.75;;
74074;SDS011;62428;51.412;5.432;2023-04-01T08:02:34;22.65;;;10.70;;
74074;SDS011;62428;51.412;5.432;2023-04-01T08:05:23;31.57;;;11.47;;
74074;SDS011;62428;51.412;5.432;2023-04-01T08:08:05;26.85;;;11.63;;
74074;SDS011;62428;51.412;5.432;2023-04-01T08:10:52;31.02;;;12.93;;
74074;SDS011;62428;51.412;5.432;2023-04-01T08:21:40;25.95;;;12.38;;
74074;SDS011;62428;51.412;5.432;2023-04-01T08:26:58;27.83;;;11.63;;
74074;SDS011;62428;51.412;5.432;2023-04-01T08:32:32;25.30;;;10.83;;
74074;SDS011;62428;51.412;5.432;2023-04-01T08:37:32;29.85;;;12.48;;
74074;SDS011;62428;51.412;5.432;2023-04-01T08:45:40;27.67;;;11.43;;
74074;SDS011;62428;51.412;5.432;2023-04-01T08:48:30;25.38;;;11.68;;
74074;SDS011;62428;51.412;5.432;2023-04-01T08:53:46;22.65;;;10.02;;
74074;SDS011;62428;51.412;5.432;2023-04-01T09:08:01;17.58;;;8.93;;
74074;SDS011;62428;51.412;5.432;2023-04-01T09:19:11;14.55;;;7.15;;
74074;SDS011;62428;51.412;5.432;2023-04-01T09:35:24;15.18;;;7.28;;
74074;SDS011;62428;51.412;5.432;2023-04-01T09:46:39;10.40;;;5.35;;
74074;SDS011;62428;51.412;5.432;2023-04-01T10:02:45;11.85;;;6.00;;
74074;SDS011;62428;51.412;5.432;2023-04-01T10:19:43;13.77;;;6.13;;
74074;SDS011;62428;51.412;5.432;2023-04-01T10:30:45;11.48;;;6.13;;
74074;SDS011;62428;51.412;5.432;2023-04-01T10:50:30;12.60;;;5.93;;
74074;SDS011;62428;51.412;5.432;2023-04-01T11:04:47;7.77;;;4.73;;
74074;SDS011;62428;51.412;5.432;2023-04-01T11:10:48;9.02;;;4.38;;
74074;SDS011;62428;51.412;5.432;2023-04-01T11:13:29;7.65;;;3.85;;
74074;SDS011;62428;51.412;5.432;2023-04-01T11:28:01;7.35;;;3.78;;
74074;SDS011;62428;51.412;5.432;2023-04-01T11:30:58;9.13;;;4.50;;
74074;SDS011;62428;51.412;5.432;2023-04-01T11:36:16;6.88;;;3.75;;
74074;SDS011;62428;51.412;5.432;2023-04-01T11:49:43;6.43;;;3.53;;
74074;SDS011;62428;51.412;5.432;2023-04-01T11:52:44;8.07;;;4.40;;
74074;SDS011;62428;51.412;5.432;2023-04-01T12:06:11;7.30;;;4.33;;
74074;SDS011;62428;51.412;5.432;2023-04-01T12:14:23;7.53;;;4.00;;
74074;SDS011;62428;51.412;5.432;2023-04-01T12:30:06;4.38;;;2.92;;
74074;SDS011;62428;51.412;5.432;2023-04-01T12:55:06;7.72;;;3.33;;
74074;SDS011;62428;51.412;5.432;2023-04-01T12:57:51;6.90;;;3.45;;
74074;SDS011;62428;51.412;5.432;2023-04-01T13:00:30;9.77;;;4.35;;
74074;SDS011;62428;51.412;5.432;2023-04-01T13:09:37;8.13;;;3.80;;
74074;SDS011;62428;51.412;5.432;2023-04-01T13:17:22;6.93;;;3.22;;
74074;SDS011;62428;51.412;5.432;2023-04-01T13:22:35;6.68;;;3.45;;
74074;SDS011;62428;51.412;5.432;2023-04-01T13:30:50;7.20;;;3.50;;
74074;SDS011;62428;51.412;5.432;2023-04-01T13:41:58;11.13;;;3.55;;
74074;SDS011;62428;51.412;5.432;2023-04-01T13:44:41;6.88;;;3.83;;
74074;SDS011;62428;51.412;5.432;2023-04-01T13:47:17;9.30;;;4.40;;
74074;SDS011;62428;51.412;5.432;2023-04-01T14:37:07;9.82;;;4.25;;
74074;SDS011;62428;51.412;5.432;2023-04-01T14:50:49;8.32;;;4.15;;
74074;SDS011;62428;51.412;5.432;2023-04-01T14:56:21;6.30;;;2.83;;
74074;SDS011;62428;51.412;5.432;2023-04-01T14:58:59;5.53;;;3.42;;
74074;SDS011;62428;51.412;5.432;2023-04-01T15:01:46;3.83;;;2.60;;
74074;SDS011;62428;51.412;5.432;2023-04-01T15:18:08;5.78;;;3.35;;
74074;SDS011;62428;51.412;5.432;2023-04-01T15:23:15;5.78;;;3.38;;
74074;SDS011;62428;51.412;5.432;2023-04-01T15:26:09;6.57;;;3.20;;
74074;SDS011;62428;51.412;5.432;2023-04-01T15:28:44;6.03;;;2.65;;
74074;SDS011;62428;51.412;5.432;2023-04-01T15:31:27;6.20;;;3.30;;
74074;SDS011;62428;51.412;5.432;2023-04-01T15:36:56;5.68;;;3.25;;
74074;SDS011;62428;51.412;5.432;2023-04-01T15:39:39;4.38;;;2.72;;
74074;SDS011;62428;51.412;5.432;2023-04-01T15:42:12;5.65;;;3.47;;
74074;SDS011;62428;51.412;5.432;2023-04-01T15:45:03;4.88;;;2.90;;
74074;SDS011;62428;51.412;5.432;2023-04-01T15:47:33;4.57;;;2.70;;
74074;SDS011;62428;51.412;5.432;2023-04-01T15:55:52;7.25;;;3.75;;
74074;SDS011;62428;51.412;5.432;2023-04-01T15:59:17;6.53;;;3.65;;
74074;SDS011;62428;51.412;5.432;2023-04-01T16:12:37;7.30;;;3.45;;
74074;SDS011;62428;51.412;5.432;2023-04-01T16:18:05;5.15;;;3.03;;
74074;SDS011;62428;51.412;5.432;2023-04-01T16:21:14;4.43;;;3.17;;
74074;SDS011;62428;51.412;5.432;2023-04-01T16:23:58;4.22;;;3.10;;
74074;SDS011;62428;51.412;5.432;2023-04-01T16:26:50;5.50;;;3.72;;
74074;SDS011;62428;51.412;5.432;2023-04-01T16:32:26;5.05;;;3.28;;
74074;SDS011;62428;51.412;5.432;2023-04-01T16:37:29;6.60;;;3.90;;
74074;SDS011;62428;51.412;5.432;2023-04-01T16:40:13;4.78;;;3.03;;
74074;SDS011;62428;51.412;5.432;2023-04-01T16:42:53;5.17;;;3.40;;
74074;SDS011;62428;51.412;5.432;2023-04-01T16:45:33;5.35;;;3.30;;
74074;SDS011;62428;51.412;5.432;2023-04-01T16:48:12;9.48;;;3.80;;
74074;SDS011;62428;51.412;5.432;2023-04-01T16:53:47;6.63;;;3.75;;
74074;SDS011;62428;51.412;5.432;2023-04-01T16:56:23;7.63;;;3.67;;
74074;SDS011;62428;51.412;5.432;2023-04-01T16:59:03;6.25;;;3.75;;
74074;SDS011;62428;51.412;5.432;2023-04-01T17:07:01;9.43;;;5.13;;
74074;SDS011;62428;51.412;5.432;2023-04-01T17:12:39;12.57;;;6.82;;
74074;SDS011;62428;51.412;5.432;2023-04-01T17:18:23;11.90;;;6.07;;
74074;SDS011;62428;51.412;5.432;2023-04-01T17:21:07;10.88;;;7.03;;
74074;SDS011;62428;51.412;5.432;2023-04-01T17:24:00;9.27;;;5.93;;
74074;SDS011;62428;51.412;5.432;2023-04-01T17:29:28;11.25;;;6.63;;
74074;SDS011;62428;51.412;5.432;2023-04-01T17:37:56;11.17;;;6.57;;
74074;SDS011;62428;51.412;5.432;2023-04-01T17:43:16;11.77;;;7.07;;
74074;SDS011;62428;51.412;5.432;2023-04-01T17:51:19;11.27;;;5.97;;
74074;SDS011;62428;51.412;5.432;2023-04-01T17:57:08;13.55;;;6.95;;
74074;SDS011;62428;51.412;5.432;2023-04-01T17:59:36;15.80;;;6.63;;
74074;SDS011;62428;51.412;5.432;2023-04-01T18:02:12;11.85;;;6.13;;
74074;SDS011;62428;51.412;5.432;2023-04-01T18:19:02;6.30;;;3.87;;
74074;SDS011;62428;51.412;5.432;2023-04-01T18:32:15;7.93;;;4.40;;
74074;SDS011;62428;51.412;5.432;2023-04-01T18:35:02;7.15;;;3.97;;
74074;SDS011;62428;51.412;5.432;2023-04-01T18:37:58;7.20;;;4.00;;
74074;SDS011;62428;51.412;5.432;2023-04-01T18:46:27;5.97;;;3.70;;
74074;SDS011;62428;51.412;5.432;2023-04-01T18:51:51;6.95;;;3.70;;
74074;SDS011;62428;51.412;5.432;2023-04-01T18:54:31;8.48;;;4.07;;
74074;SDS011;62428;51.412;5.432;2023-04-01T18:57:09;7.15;;;4.38;;
74074;SDS011;62428;51.412;5.432;2023-04-01T18:59:42;8.77;;;4.13;;
74074;SDS011;62428;51.412;5.432;2023-04-01T19:02:45;6.38;;;4.05;;
74074;SDS011;62428;51.412;5.432;2023-04-01T19:05:19;6.03;;;3.70;;
74074;SDS011;62428;51.412;5.432;2023-04-01T19:21:56;5.75;;;3.70;;
74074;SDS011;62428;51.412;5.432;2023-04-01T19:33:06;9.50;;;4.40;;
74074;SDS011;62428;51.412;5.432;2023-04-01T19:38:37;6.95;;;4.03;;
74074;SDS011;62428;51.412;5.432;2023-04-01T19:43:58;7.03;;;4.13;;
74074;SDS011;62428;51.412;5.432;2023-04-01T19:46:48;10.57;;;4.68;;
74074;SDS011;62428;51.412;5.432;2023-04-01T19:49:38;8.70;;;4.57;;
74074;SDS011;62428;51.412;5.432;2023-04-01T19:52:41;9.23;;;4.93;;
74074;SDS011;62428;51.412;5.432;2023-04-01T19:58:03;10.80;;;5.75;;
74074;SDS011;62428;51.412;5.432;2023-04-01T20:00:38;8.60;;;5.13;;
74074;SDS011;62428;51.412;5.432;2023-04-01T20:03:18;9.65;;;6.00;;
74074;SDS011;62428;51.412;5.432;2023-04-01T20:14:49;10.52;;;6.40;;
74074;SDS011;62428;51.412;5.432;2023-04-01T20:22:51;9.77;;;6.00;;
74074;SDS011;62428;51.412;5.432;2023-04-01T20:25:27;9.35;;;5.47;;
74074;SDS011;62428;51.412;5.432;2023-04-01T20:41:20;11.50;;;5.78;;
74074;SDS011;62428;51.412;5.432;2023-04-01T20:46:46;11.10;;;5.82;;
74074;SDS011;62428;51.412;5.432;2023-04-01T20:49:23;8.93;;;5.53;;
74074;SDS011;62428;51.412;5.432;2023-04-01T20:54:51;9.82;;;5.30;;
74074;SDS011;62428;51.412;5.432;2023-04-01T21:11:46;8.32;;;5.18;;
74074;SDS011;62428;51.412;5.432;2023-04-01T21:17:22;8.33;;;5.27;;
74074;SDS011;62428;51.412;5.432;2023-04-01T21:28:15;11.70;;;5.18;;
74074;SDS011;62428;51.412;5.432;2023-04-01T21:42:16;7.90;;;5.10;;
74074;SDS011;62428;51.412;5.432;2023-04-01T22:07:03;9.07;;;5.72;;
74074;SDS011;62428;51.412;5.432;2023-04-01T22:09:39;11.57;;;6.05;;
74074;SDS011;62428;51.412;5.432;2023-04-01T22:12:17;9.40;;;5.60;;
74074;SDS011;62428;51.412;5.432;2023-04-01T22:14:59;10.35;;;5.75;;
74074;SDS011;62428;51.412;5.432;2023-04-01T22:17:35;10.40;;;6.30;;
74074;SDS011;62428;51.412;5.432;2023-04-01T22:28:38;9.85;;;5.13;;
74074;SDS011;62428;51.412;5.432;2023-04-01T22:31:07;9.25;;;5.55;;
74074;SDS011;62428;51.412;5.432;2023-04-01T22:42:26;9.38;;;5.30;;
74074;SDS011;62428;51.412;5.432;2023-04-01T22:52:38;13.80;;;8.17;;
74074;SDS011;62428;51.412;5.432;2023-04-01T22:55:28;13.38;;;8.10;;
74074;SDS011;62428;51.412;5.432;2023-04-01T22:57:58;15.40;;;8.57;;
74074;SDS011;62428;51.412;5.432;2023-04-01T23:03:21;14.70;;;8.18;;
74074;SDS011;62428;51.412;5.432;2023-04-01T23:05:58;14.13;;;8.65;;
74074;SDS011;62428;51.412;5.432;2023-04-01T23:10:58;15.57;;;8.30;;
74074;SDS011;62428;51.412;5.432;2023-04-01T23:13:31;10.93;;;7.13;;
74074;SDS011;62428;51.412;5.432;2023-04-01T23:16:05;12.70;;;7.63;;
74074;SDS011;62428;51.412;5.432;2023-04-01T23:27:08;13.23;;;6.40;;
74074;SDS011;62428;51.412;5.432;2023-04-01T23:29:40;11.93;;;6.90;;
74074;SDS011;62428;51.412;5.432;2023-04-01T23:32:40;10.77;;;6.35;;
74074;SDS011;62428;51.412;5.432;2023-04-01T23:34:59;10.93;;;6.82;;
74074;SDS011;62428;51.412;5.432;2023-04-01T23:37:25;11.13;;;6.57;;
74074;SDS011;62428;51.412;5.432;2023-04-01T23:39:55;9.68;;;6.15;;
74074;SDS011;62428;51.412;5.432;2023-04-01T23:42:26;10.60;;;6.20;;
74074;SDS011;62428;51.412;5.432;2023-04-01T23:45:01;11.27;;;6.72;;
74074;SDS011;62428;51.412;5.432;2023-04-01T23:47:31;11.68;;;6.45;;
74074;SDS011;62428;51.412;5.432;2023-04-01T23:49:59;10.40;;;6.50;;
74074;SDS011;62428;51.412;5.432;2023-04-01T23:52:34;9.70;;;6.03;;
74074;SDS011;62428;51.412;5.432;2023-04-01T23:55:23;9.65;;;6.15;;
74074;SDS011;62428;51.412;5.432;2023-04-01T23:58:06;8.45;;;5.57;;
